Tropical Cyclones
[Index]
Main Index Home Page Stock Weather Photos Extreme Storms Discussion Storm News and Storm Chasing Reports Tropical Cyclones / Hurricanes / Typhoons Weather Data and Links Wild Fires / Bushfires Weather Observation Techniques Weather Picture Catalogue Tornado Pictures and Reports Stock Video Footage and DVDs for sale
Season 1988-1989 Tropical Cyclone KRISSY Track Map
Season 1988-1989 Summaries: [BoM-AU] [JTWC-AU] [JTWC-SIO] [JTWC-SPAC] [JTWC-SH]
<<- Previous TC | JTWC 1988-1989 Season | Next TC ->>

click for intensity scale information  Lat/long Grid: Show Hide

 Date Labels: Show Hide

Joint Typhoon Warning Centre Cyclone Data

Name: KRISSY

26 Mar 1989 12:00 UTC to 09 Apr 1989 00:00 UTC

    date/time    lat    long     hPa   cat  kts
1989-03-26 12    8.0    80.6                  20          
1989-03-26 18    8.0    80.0                  20          
1989-03-27 00    8.2    79.3                  20          
1989-03-27 06    8.3    78.7                  20          
1989-03-27 12    8.6    77.9                  20          
1989-03-27 18    9.1    77.5                  20          
1989-03-28 00    9.6    77.0                  20          
1989-03-28 06   10.0    76.1                  20          
1989-03-28 12    9.8    75.2                  25          
1989-03-28 18    9.6    74.7                  25          
1989-03-29 00    9.7    74.0                  25          
1989-03-29 06   10.1    73.6                  25          
1989-03-29 12   10.6    73.7                  30          
1989-03-29 18   11.3    73.6                  35          
1989-03-30 00   11.7    73.3            1     50          
1989-03-30 06   12.2    73.0            2     55          
1989-03-30 12   12.3    72.7            2     55          
1989-03-30 18   12.4    72.3            2     60          
1989-03-31 00   12.5    71.8            2     65          
1989-03-31 06   12.5    71.5            2     65          
1989-03-31 12   12.4    71.1            3     75          
1989-03-31 18   12.6    70.7            3     80          
1989-04-01 00   12.8    70.3            3     85          
1989-04-01 06   13.3    70.1            3     90          
1989-04-01 12   13.7    70.0            4    100          
1989-04-01 18   14.3    70.0            4    100          
1989-04-02 00   14.7    70.1            4    105          
1989-04-02 06   15.0    70.2            3     95          
1989-04-02 12   15.3    70.3            3     90          
1989-04-02 18   15.6    70.5            3     90          
1989-04-03 00   16.0    70.6            3     90          
1989-04-03 06   16.5    70.4            3     90          
1989-04-03 12   17.1    70.1            3     90          
1989-04-03 18   17.1    69.2            3     80          
1989-04-04 00   17.2    68.4            2     70          
1989-04-04 06   17.2    67.4            2     70          
1989-04-04 12   17.3    66.5            2     70          
1989-04-04 18   17.7    65.8            2     70          
1989-04-05 00   18.3    64.8            2     65          
1989-04-05 06   18.6    63.7            2     65          
1989-04-05 12   19.0    62.6            2     65          
1989-04-05 18   19.5    61.4            2     60          
1989-04-06 00   19.8    60.0            2     55          
1989-04-06 06   20.0    58.6            1     50          
1989-04-06 12   20.8    57.7            1     45          
1989-04-06 18   21.8    56.8            1     45          
1989-04-07 00   22.8    55.5            1     45          
1989-04-07 06   23.4    54.7            1     45          
1989-04-07 12   24.0    53.7            1     45          
1989-04-07 18   24.5    53.2                  35          
1989-04-08 00   25.3    53.1                  30          
1989-04-08 06   26.2    53.4                  30          
1989-04-08 12   27.2    53.9                  30          
1989-04-08 18   28.2    54.6                  30          
1989-04-09 00   29.0    55.7                  30          
Winds are 1-min average.

Tropical cyclone tracks developed by Michael Bath using data from the Joint Typhoon Warning Centre Best Tracks and Google Maps.


[Australian Severe Weather index] [Copyright Notice] [Email Contacts] [Search This Site] [Privacy Policy]
Document: tropical_cyclone_krissy.htm Updated: 18 September 2016